createdAt,value
2022-12-04T00:00:17.922Z,101798.13
2022-12-04T00:02:46.374Z,101805.19
2022-12-04T00:05:13.167Z,101798.97
2022-12-04T00:07:44.278Z,101804.97
2022-12-04T00:10:11.206Z,101794.28
2022-12-04T00:12:37.986Z,101788.97
2022-12-04T00:17:52.776Z,101794.53
2022-12-04T00:20:21.844Z,101798.66
2022-12-04T00:22:49.210Z,101801.47
2022-12-04T00:25:18.515Z,101790.09
2022-12-04T00:27:45.194Z,101801.25
2022-12-04T00:30:12.385Z,101794.81
2022-12-04T00:32:39.083Z,101802.84
2022-12-04T00:35:06.323Z,101802.44
2022-12-04T00:37:33.448Z,101785.50
2022-12-04T00:40:00.249Z,101789.75
2022-12-04T00:42:27.022Z,101797.81
2022-12-04T00:44:53.815Z,101786.25
2022-12-04T00:47:20.907Z,101784.47
2022-12-04T00:49:47.665Z,101780.75
2022-12-04T00:52:14.335Z,101773.50
2022-12-04T00:54:41.170Z,101777.84
2022-12-04T00:57:09.457Z,101782.03
2022-12-04T00:59:37.918Z,101785.88
2022-12-04T01:02:04.820Z,101787.78
2022-12-04T01:04:31.613Z,101786.66
2022-12-04T01:07:04.621Z,101785.13
2022-12-04T01:09:32.915Z,101780.53
2022-12-04T01:12:00.531Z,101780.34
2022-12-04T01:14:27.324Z,101780.34
2022-12-04T01:16:57.384Z,101772.72
2022-12-04T01:19:27.085Z,101779.75
2022-12-04T01:21:53.864Z,101769.56
2022-12-04T01:24:20.711Z,101777.53
2022-12-04T01:26:47.519Z,101772.44
2022-12-04T01:29:14.256Z,101791.66
2022-12-04T01:31:41.075Z,101796.09
2022-12-04T01:34:08.012Z,101780.19
2022-12-04T01:36:34.814Z,101782.06
2022-12-04T01:39:01.623Z,101776.38
2022-12-04T01:41:30.409Z,101774.34
2022-12-04T01:44:18.420Z,101782.38
2022-12-04T01:46:50.108Z,101790.03
2022-12-04T01:49:40.739Z,101785.97
2022-12-04T01:52:14.000Z,101777.06
2022-12-04T01:54:45.102Z,101779.72
2022-12-04T01:57:14.320Z,101774.94
2022-12-04T01:59:47.920Z,101770.91
2022-12-04T02:02:17.478Z,101770.72
2022-12-04T02:04:45.087Z,101772.47
2022-12-04T02:07:12.281Z,101771.16
2022-12-04T02:09:41.376Z,101772.91
2022-12-04T02:12:48.623Z,101772.56
2022-12-04T02:15:28.939Z,101762.69
2022-12-04T02:18:10.262Z,101766.22
2022-12-04T02:20:45.984Z,101771.59
2022-12-04T02:23:30.993Z,101769.91
2022-12-04T02:26:03.801Z,101767.81
2022-12-04T02:28:36.557Z,101771.84
2022-12-04T02:31:07.946Z,101769.03
2022-12-04T02:33:45.208Z,101778.09
2022-12-04T02:36:35.675Z,101785.72
2022-12-04T02:39:07.463Z,101771.69
2022-12-04T02:41:41.903Z,101773.75
2022-12-04T02:44:23.162Z,101810.72
2022-12-04T02:46:58.010Z,101809.03
2022-12-04T02:49:38.027Z,101798.50
2022-12-04T02:52:11.726Z,101799.88
2022-12-04T02:54:49.653Z,101797.03
2022-12-04T02:57:22.904Z,101783.75
2022-12-04T02:59:52.357Z,101792.66
2022-12-04T03:02:53.492Z,101781.88
2022-12-04T03:05:24.716Z,101789.06
2022-12-04T03:07:58.848Z,101778.44
2022-12-04T03:10:30.769Z,101781.09
2022-12-04T03:13:09.185Z,101776.56
2022-12-04T03:15:43.822Z,101787.38
2022-12-04T03:18:18.181Z,101788.56
2022-12-04T03:20:49.431Z,101788.56
2022-12-04T03:23:22.823Z,101789.25
2022-12-04T03:26:01.706Z,101779.13
2022-12-04T03:28:41.260Z,101785.06
2022-12-04T03:31:09.877Z,101779.22
2022-12-04T03:33:46.676Z,101783.69
2022-12-04T03:36:16.541Z,101788.72
2022-12-04T03:38:50.281Z,101805.94
2022-12-04T03:41:38.158Z,101804.91
2022-12-04T03:44:20.393Z,101800.78
2022-12-04T03:46:59.448Z,101816.25
2022-12-04T03:49:37.042Z,101794.00
2022-12-04T03:52:12.652Z,101800.56
2022-12-04T03:55:15.618Z,101798.06
2022-12-04T03:57:47.037Z,101795.09
2022-12-04T04:00:17.801Z,101792.28
2022-12-04T04:02:50.393Z,101785.25
2022-12-04T04:05:19.012Z,101786.97
2022-12-04T04:08:17.363Z,101788.69
2022-12-04T04:10:44.677Z,101789.63
2022-12-04T04:13:33.615Z,101785.09
2022-12-04T04:16:24.560Z,101780.41
2022-12-04T04:19:12.789Z,101786.47
2022-12-04T04:22:01.443Z,101787.84
2022-12-04T04:24:50.316Z,101793.16
2022-12-04T04:27:17.203Z,101792.56
2022-12-04T04:29:50.745Z,101784.59
2022-12-04T04:32:23.239Z,101779.28
2022-12-04T04:35:00.511Z,101787.94
2022-12-04T04:37:40.261Z,101788.41
2022-12-04T04:40:38.315Z,101796.34
2022-12-04T04:43:40.153Z,101802.97
2022-12-04T04:46:23.236Z,101791.78
2022-12-04T04:48:55.891Z,101790.94
2022-12-04T04:51:22.827Z,101787.84
2022-12-04T04:53:53.984Z,101797.47
2022-12-04T04:56:21.472Z,101800.69
2022-12-04T04:58:48.175Z,101790.94
2022-12-04T05:01:17.668Z,101799.41
2022-12-04T05:03:45.054Z,101789.22
2022-12-04T05:06:12.254Z,101794.25
2022-12-04T05:08:39.419Z,101798.66
2022-12-04T05:11:06.853Z,101791.47
2022-12-04T05:13:33.918Z,101773.81
2022-12-04T05:16:10.379Z,101781.88
2022-12-04T05:18:37.713Z,101784.78
2022-12-04T05:21:18.855Z,101780.66
2022-12-04T05:23:45.587Z,101782.13
2022-12-04T05:26:12.465Z,101780.91
2022-12-04T05:28:41.121Z,101782.22
2022-12-04T05:31:08.013Z,101796.09
2022-12-04T05:33:34.741Z,101788.56
2022-12-04T05:36:07.305Z,101789.75
2022-12-04T05:38:34.308Z,101785.06
2022-12-04T05:41:02.636Z,101787.38
2022-12-04T05:43:29.925Z,101779.81
2022-12-04T05:46:04.946Z,101796.63
2022-12-04T05:48:32.419Z,101786.50
2022-12-04T05:50:59.310Z,101798.16
2022-12-04T05:53:26.049Z,101789.41
2022-12-04T05:55:57.412Z,101792.00
2022-12-04T05:58:24.516Z,101798.34
2022-12-04T06:00:51.351Z,101787.72
2022-12-04T06:03:18.184Z,101796.72
2022-12-04T06:05:44.971Z,101803.03
2022-12-04T06:08:11.980Z,101801.75
2022-12-04T06:10:39.100Z,101804.75
2022-12-04T06:13:06.916Z,101815.53
2022-12-04T06:15:38.740Z,101805.69
2022-12-04T06:18:05.606Z,101807.56
2022-12-04T06:20:33.239Z,101810.16
2022-12-04T06:23:00.117Z,101820.69
2022-12-04T06:25:27.138Z,101819.56
2022-12-04T06:27:53.951Z,101811.88
2022-12-04T06:30:20.770Z,101822.31
2022-12-04T06:32:47.574Z,101828.56
2022-12-04T06:35:14.258Z,101844.72
2022-12-04T06:37:41.131Z,101839.38
2022-12-04T06:40:08.562Z,101832.41
2022-12-04T06:42:35.270Z,101830.78
2022-12-04T06:45:02.000Z,101826.47
2022-12-04T06:47:28.768Z,101817.59
2022-12-04T06:49:55.729Z,101826.06
2022-12-04T06:52:23.068Z,101823.94
2022-12-04T06:54:49.726Z,101822.31
2022-12-04T06:57:16.827Z,101824.03
2022-12-04T06:59:43.558Z,101818.50
2022-12-04T07:02:11.095Z,101832.38
2022-12-04T07:04:37.765Z,101821.25
2022-12-04T07:07:04.506Z,101815.78
2022-12-04T07:09:31.168Z,101812.88
2022-12-04T07:11:57.954Z,101816.81
2022-12-04T07:14:24.630Z,101824.44
2022-12-04T07:16:51.712Z,101831.06
2022-12-04T07:19:18.588Z,101833.41
2022-12-04T07:21:45.406Z,101824.84
2022-12-04T07:24:16.237Z,101816.19
2022-12-04T07:26:43.525Z,101819.38
2022-12-04T07:29:10.788Z,101822.78
2022-12-04T07:31:38.102Z,101818.19
2022-12-04T07:34:05.009Z,101827.44
2022-12-04T07:36:31.838Z,101823.69
2022-12-04T07:38:58.571Z,101826.94
2022-12-04T07:41:25.629Z,101830.97
2022-12-04T07:43:52.417Z,101841.16
2022-12-04T07:46:22.019Z,101829.34
2022-12-04T07:48:48.864Z,101829.16
2022-12-04T07:51:18.528Z,101825.13
2022-12-04T07:53:45.817Z,101851.59
2022-12-04T07:56:14.170Z,101836.91
2022-12-04T07:58:42.214Z,101842.53
2022-12-04T08:01:18.378Z,101831.16
2022-12-04T08:03:48.401Z,101838.59
2022-12-04T08:06:20.332Z,101843.22
2022-12-04T08:08:48.258Z,101850.94
2022-12-04T08:11:18.539Z,101847.41
2022-12-04T08:13:45.935Z,101844.00
2022-12-04T08:16:14.381Z,101847.50
2022-12-04T08:18:46.742Z,101842.53
2022-12-04T08:21:16.894Z,101838.84
2022-12-04T08:23:44.486Z,101848.47
2022-12-04T08:26:12.515Z,101860.50
2022-12-04T08:28:40.311Z,101861.41
2022-12-04T08:31:10.973Z,101866.16
2022-12-04T08:33:38.057Z,101865.81
2022-12-04T08:36:10.102Z,101857.41
2022-12-04T08:38:37.096Z,101850.31
2022-12-04T08:41:05.727Z,101853.03
2022-12-04T08:43:32.947Z,101861.00
2022-12-04T08:46:01.805Z,101860.72
2022-12-04T08:48:29.416Z,101854.38
2022-12-04T08:50:56.369Z,101867.59
2022-12-04T08:53:23.781Z,101863.91
2022-12-04T08:55:51.570Z,101859.66
2022-12-04T08:58:19.887Z,101870.47
2022-12-04T09:00:46.832Z,101871.56
2022-12-04T09:03:16.137Z,101865.41
2022-12-04T09:05:45.834Z,101881.75
2022-12-04T09:08:16.905Z,101885.53
2022-12-04T09:10:44.505Z,101874.56
2022-12-04T09:13:11.353Z,101876.19
2022-12-04T09:15:41.466Z,101876.03
2022-12-04T09:18:09.367Z,101880.25
2022-12-04T09:20:37.186Z,101873.38
2022-12-04T09:23:05.684Z,101881.78
2022-12-04T09:25:36.496Z,101874.41
2022-12-04T09:28:03.876Z,101875.88
2022-12-04T09:30:30.596Z,101896.03
2022-12-04T09:32:57.437Z,101876.19
2022-12-04T09:35:24.266Z,101887.59
2022-12-04T09:37:50.975Z,101898.56
2022-12-04T09:40:37.094Z,101895.16
2022-12-04T09:43:33.679Z,101898.38
2022-12-04T09:46:09.679Z,101899.28
2022-12-04T09:48:41.279Z,101897.63
2022-12-04T09:51:18.525Z,101899.50
2022-12-04T09:54:09.823Z,101902.81
2022-12-04T09:56:36.573Z,101903.09
2022-12-04T09:59:12.110Z,101908.25
2022-12-04T10:02:03.513Z,101902.31
2022-12-04T10:04:30.882Z,101903.09
2022-12-04T10:07:12.854Z,101903.00
2022-12-04T10:09:52.516Z,101912.44
2022-12-04T10:12:45.450Z,101902.81
2022-12-04T10:15:39.502Z,101898.53
2022-12-04T10:18:27.706Z,101899.97
2022-12-04T10:21:08.534Z,101899.44
2022-12-04T10:23:57.112Z,101882.19
2022-12-04T10:26:32.073Z,101892.03
2022-12-04T10:29:06.900Z,101903.19
2022-12-04T10:31:37.564Z,101906.13
2022-12-04T10:34:29.517Z,101888.53
2022-12-04T10:37:02.788Z,101891.19
2022-12-04T10:39:44.689Z,101889.91
2022-12-04T10:42:38.517Z,101897.69
2022-12-04T10:45:06.393Z,101895.22
2022-12-04T10:47:34.814Z,101909.94
2022-12-04T10:50:15.043Z,101907.13
2022-12-04T10:52:41.750Z,101895.47
2022-12-04T10:55:08.915Z,101903.44
2022-12-04T10:57:42.084Z,101906.03
2022-12-04T11:00:27.755Z,101901.41
2022-12-04T11:02:57.735Z,101902.81
2022-12-04T11:05:33.871Z,101907.13
2022-12-04T11:08:05.050Z,101903.38
2022-12-04T11:10:58.164Z,101906.63
2022-12-04T11:13:24.930Z,101915.03
2022-12-04T11:15:54.342Z,101910.47
2022-12-04T11:18:24.573Z,101908.72
2022-12-04T11:20:53.889Z,101909.78
2022-12-04T11:23:21.828Z,101896.34
2022-12-04T11:25:51.644Z,101908.72
2022-12-04T11:28:46.100Z,101899.25
2022-12-04T11:31:19.329Z,101901.41
2022-12-04T11:34:00.123Z,101897.69
2022-12-04T11:36:31.523Z,101917.94
2022-12-04T11:39:07.574Z,101907.63
2022-12-04T11:41:34.955Z,101896.34
2022-12-04T11:44:01.880Z,101915.44
2022-12-04T11:46:31.582Z,101918.03
2022-12-04T11:48:59.245Z,101921.78
2022-12-04T11:51:43.381Z,101941.41
2022-12-04T11:54:18.934Z,101910.63
2022-12-04T11:56:50.471Z,101908.13
2022-12-04T11:59:52.207Z,101907.66
2022-12-04T12:02:30.661Z,101902.25
2022-12-04T12:05:28.300Z,101902.94
2022-12-04T12:08:23.153Z,101900.78
2022-12-04T12:11:04.809Z,101892.31
2022-12-04T12:13:42.634Z,101895.31
2022-12-04T12:16:48.516Z,101894.63
2022-12-04T12:19:51.913Z,101913.25
2022-12-04T12:22:44.043Z,101902.53
2022-12-04T12:25:51.730Z,101925.38
2022-12-04T12:28:41.936Z,101905.81
2022-12-04T12:31:25.192Z,101899.38
2022-12-04T12:34:02.181Z,101894.59
2022-12-04T12:36:38.783Z,101893.09
2022-12-04T12:39:16.501Z,101888.38
2022-12-04T12:41:52.969Z,101888.81
2022-12-04T12:44:30.470Z,101883.75
2022-12-04T12:47:05.216Z,101880.41
2022-12-04T12:49:40.019Z,101874.66
2022-12-04T12:52:17.494Z,101896.28
2022-12-04T12:54:49.226Z,101887.69
2022-12-04T12:57:24.294Z,101882.28
2022-12-04T12:59:58.606Z,101886.16
2022-12-04T13:02:47.261Z,101882.78
2022-12-04T13:05:20.453Z,101871.66
2022-12-04T13:08:05.718Z,101876.28
2022-12-04T13:10:46.204Z,101891.13
2022-12-04T13:13:26.044Z,101880.22
2022-12-04T13:16:19.822Z,101891.56
2022-12-04T13:18:55.477Z,101896.09
2022-12-04T13:21:36.722Z,101886.25
2022-12-04T13:24:18.776Z,101887.78
2022-12-04T13:26:56.660Z,101886.06
2022-12-04T13:29:49.743Z,101878.78
2022-12-04T13:32:53.671Z,101893.78
2022-12-04T13:35:36.895Z,101880.41
2022-12-04T13:38:36.260Z,101879.53
2022-12-04T13:41:06.886Z,101882.13
2022-12-04T13:43:42.652Z,101890.94
2022-12-04T13:46:42.744Z,101880.22
2022-12-04T13:49:25.134Z,101890.75
2022-12-04T13:51:53.030Z,101880.84
2022-12-04T13:54:23.048Z,101885.56
2022-12-04T13:56:53.321Z,101875.59
2022-12-04T13:59:32.942Z,101873.06
2022-12-04T14:02:21.719Z,101879.72
2022-12-04T14:05:07.074Z,101883.84
2022-12-04T14:07:37.428Z,101886.41
2022-12-04T14:10:16.031Z,101886.94
2022-12-04T14:12:51.846Z,101891.03
2022-12-04T14:15:28.120Z,101892.75
2022-12-04T14:18:05.125Z,101887.78
2022-12-04T14:20:33.968Z,101901.84
2022-12-04T14:23:26.626Z,101906.97
2022-12-04T14:25:58.233Z,101911.88
2022-12-04T14:28:27.348Z,101912.56
2022-12-04T14:31:17.461Z,101907.47
2022-12-04T14:33:58.385Z,101906.69
2022-12-04T14:36:25.163Z,101907.84
2022-12-04T14:39:31.539Z,101909.03
2022-12-04T14:42:28.895Z,101913.66
2022-12-04T14:44:58.967Z,101920.69
2022-12-04T14:47:58.957Z,101909.28
2022-12-04T14:50:44.176Z,101921.53
2022-12-04T14:53:32.616Z,101913.94
2022-12-04T14:56:17.388Z,101926.28
2022-12-04T14:58:44.683Z,101924.06
2022-12-04T15:01:29.670Z,101910.31
2022-12-04T15:04:01.312Z,101924.38
2022-12-04T15:06:33.815Z,101930.06
2022-12-04T15:09:22.791Z,101919.00
2022-12-04T15:12:13.071Z,101921.63
2022-12-04T15:14:47.974Z,101914.06
2022-12-04T15:17:17.241Z,101912.19
2022-12-04T15:19:44.263Z,101916.53
2022-12-04T15:22:31.238Z,101923.59
2022-12-04T15:24:58.451Z,101928.97
2022-12-04T15:27:32.039Z,101933.66
2022-12-04T15:30:02.343Z,101931.72
2022-12-04T15:32:31.696Z,101938.22
2022-12-04T15:35:03.219Z,101948.38
2022-12-04T15:37:31.936Z,101945.03
2022-12-04T15:39:59.881Z,101942.00
2022-12-04T15:42:30.479Z,101937.25
2022-12-04T15:45:01.336Z,101939.91
2022-12-04T15:47:51.773Z,101937.88
2022-12-04T15:50:18.453Z,101946.75
2022-12-04T15:53:16.836Z,101931.88
2022-12-04T15:55:51.208Z,101934.03
2022-12-04T15:58:26.731Z,101944.44
2022-12-04T16:01:02.505Z,101955.72
2022-12-04T16:03:37.415Z,101955.41
2022-12-04T16:06:16.750Z,101956.78
2022-12-04T16:08:45.635Z,101967.75
2022-12-04T16:11:18.509Z,101971.28
2022-12-04T16:13:45.228Z,101974.78
2022-12-04T16:16:15.518Z,101972.47
2022-12-04T16:18:43.378Z,101968.56
2022-12-04T16:21:16.548Z,101971.13
2022-12-04T16:23:43.822Z,101981.75
2022-12-04T16:26:17.889Z,101982.84
2022-12-04T16:28:45.437Z,101981.94
2022-12-04T16:31:18.879Z,101986.28
2022-12-04T16:33:46.880Z,101976.75
2022-12-04T16:36:13.636Z,101995.03
2022-12-04T16:38:40.349Z,101982.38
2022-12-04T16:41:13.472Z,101984.41
2022-12-04T16:43:40.193Z,101989.94
2022-12-04T16:46:11.871Z,101987.22
2022-12-04T16:48:38.854Z,102001.41
2022-12-04T16:51:05.744Z,102007.13
2022-12-04T16:53:32.512Z,101998.06
2022-12-04T16:55:59.302Z,101994.22
2022-12-04T16:58:26.059Z,101996.28
2022-12-04T17:00:56.161Z,101990.19
2022-12-04T17:03:32.128Z,101990.72
2022-12-04T17:06:00.534Z,101988.78
2022-12-04T17:08:28.041Z,101997.72
2022-12-04T17:10:54.846Z,102002.19
2022-12-04T17:13:22.501Z,101997.84
2022-12-04T17:15:49.664Z,102002.38
2022-12-04T17:18:20.748Z,102000.63
2022-12-04T17:20:48.023Z,102005.03
2022-12-04T17:23:14.857Z,101991.75
2022-12-04T17:25:41.897Z,102002.13
2022-12-04T17:28:08.617Z,102007.38
2022-12-04T17:30:36.466Z,102003.28
2022-12-04T17:33:05.196Z,102013.13
2022-12-04T17:35:31.954Z,102004.47
2022-12-04T17:38:04.042Z,102016.56
2022-12-04T17:40:32.984Z,102023.91
2022-12-04T17:43:00.984Z,102005.25
2022-12-04T17:45:28.673Z,102006.41
2022-12-04T17:47:55.439Z,102021.72
2022-12-04T17:50:22.131Z,102015.53
2022-12-04T17:52:48.911Z,102020.00
2022-12-04T17:55:15.711Z,102019.06
2022-12-04T17:57:42.471Z,102024.38
2022-12-04T18:00:12.264Z,102020.47
2022-12-04T18:02:41.719Z,102020.28
2022-12-04T18:05:09.397Z,102022.03
2022-12-04T18:07:36.192Z,102042.00
2022-12-04T18:10:03.038Z,102035.59
2022-12-04T18:12:29.820Z,102036.63
2022-12-04T18:14:56.547Z,102038.41
2022-12-04T18:17:23.338Z,102038.72
2022-12-04T18:19:50.053Z,102032.38
2022-12-04T18:22:16.839Z,102031.53
2022-12-04T18:24:43.775Z,102037.38
2022-12-04T18:27:10.634Z,102025.91
2022-12-04T18:29:37.687Z,102014.31
2022-12-04T18:32:04.652Z,102040.81
2022-12-04T18:34:31.743Z,102052.06
2022-12-04T18:36:58.657Z,102045.03
2022-12-04T18:39:26.841Z,102050.06
2022-12-04T18:41:57.137Z,102050.50
2022-12-04T18:44:24.707Z,102044.28
2022-12-04T18:46:51.604Z,102059.38
2022-12-04T18:49:18.469Z,102048.88
2022-12-04T18:51:49.557Z,102043.63
2022-12-04T18:54:22.814Z,102061.38
2022-12-04T18:56:50.790Z,102054.97
2022-12-04T18:59:20.759Z,102052.78
2022-12-04T19:01:50.405Z,102049.72
2022-12-04T19:04:18.725Z,102050.50
2022-12-04T19:06:48.119Z,102062.47
2022-12-04T19:09:18.603Z,102054.50
2022-12-04T19:11:46.110Z,102060.75
2022-12-04T19:14:21.024Z,102061.28
2022-12-04T19:16:50.493Z,102065.50
2022-12-04T19:19:18.171Z,102068.94
2022-12-04T19:21:44.934Z,102060.44
2022-12-04T19:24:12.250Z,102068.09
2022-12-04T19:26:39.432Z,102067.69
2022-12-04T19:29:07.548Z,102070.88
2022-12-04T19:31:37.044Z,102064.09
2022-12-04T19:34:06.631Z,102063.31
2022-12-04T19:36:34.723Z,102074.88
2022-12-04T19:39:02.992Z,102074.81
2022-12-04T19:41:31.351Z,102079.81
2022-12-04T19:44:00.341Z,102089.66
2022-12-04T19:46:30.361Z,102073.41
2022-12-04T19:49:01.825Z,102085.25
2022-12-04T19:51:32.166Z,102087.47
2022-12-04T19:53:59.451Z,102088.56
2022-12-04T19:56:27.723Z,102101.38
2022-12-04T19:58:58.028Z,102092.22
2022-12-04T20:01:27.188Z,102086.81
2022-12-04T20:03:57.445Z,102093.09
2022-12-04T20:12:37.999Z,102086.22
2022-12-04T20:15:08.263Z,102095.81
2022-12-04T20:17:37.957Z,102089.94
2022-12-04T20:20:05.317Z,102109.31
2022-12-04T20:22:32.390Z,102103.31
2022-12-04T20:24:59.139Z,102102.69
2022-12-04T20:27:26.903Z,102096.38
2022-12-04T20:29:53.818Z,102093.09
2022-12-04T20:32:20.706Z,102095.75
2022-12-04T20:34:47.520Z,102107.28
2022-12-04T20:37:14.472Z,102099.25
2022-12-04T20:39:41.304Z,102108.00
2022-12-04T20:42:08.020Z,102097.06
2022-12-04T20:44:34.739Z,102106.13
2022-12-04T20:47:01.524Z,102106.19
2022-12-04T20:49:28.284Z,102107.91
2022-12-04T20:51:54.989Z,102106.38
2022-12-04T20:54:23.367Z,102122.59
2022-12-04T20:56:52.820Z,102109.72
2022-12-04T20:59:21.934Z,102103.53
2022-12-04T21:01:49.311Z,102102.91
2022-12-04T21:04:17.980Z,102100.25
2022-12-04T21:06:46.673Z,102107.63
2022-12-04T21:09:19.583Z,102116.69
2022-12-04T21:11:49.484Z,102104.97
2022-12-04T21:14:38.215Z,102111.06
2022-12-04T21:17:06.898Z,102104.00
2022-12-04T21:19:33.766Z,102108.16
2022-12-04T21:22:00.586Z,102110.72
2022-12-04T21:24:28.888Z,102107.13
2022-12-04T21:26:55.951Z,102106.03
2022-12-04T21:29:23.842Z,102110.72
2022-12-04T21:31:50.680Z,102103.00
2022-12-04T21:34:18.550Z,102110.72
2022-12-04T21:36:46.502Z,102113.31
2022-12-04T21:39:14.857Z,102108.84
2022-12-04T21:42:00.019Z,102129.41
2022-12-04T21:44:27.110Z,102125.19
2022-12-04T21:46:53.997Z,102111.59
2022-12-04T21:49:23.406Z,102111.44
2022-12-04T21:51:58.718Z,102107.75
2022-12-04T21:54:29.404Z,102101.50
2022-12-04T21:56:57.186Z,102117.69
2022-12-04T21:59:25.586Z,102109.09
2022-12-04T22:01:57.711Z,102119.16
2022-12-04T22:04:24.700Z,102124.78
2022-12-04T22:06:51.475Z,102122.78
2022-12-04T22:09:18.253Z,102122.59
2022-12-04T22:11:47.246Z,102115.25
2022-12-04T22:14:14.103Z,102118.06
2022-12-04T22:16:43.478Z,102114.31
2022-12-04T22:19:12.091Z,102117.84
2022-12-04T22:21:39.533Z,102118.94
2022-12-04T22:24:06.888Z,102125.25
2022-12-04T22:26:39.271Z,102130.88
2022-12-04T22:29:34.164Z,102122.78
2022-12-04T22:31:57.611Z,102131.53
2022-12-04T22:34:24.363Z,102129.56
2022-12-04T22:36:51.173Z,102139.09
2022-12-04T22:39:17.891Z,102143.91
2022-12-04T22:41:44.620Z,102143.16
2022-12-04T22:44:11.481Z,102150.44
2022-12-04T22:46:38.299Z,102148.94
2022-12-04T22:49:05.248Z,102146.19
2022-12-04T22:51:31.956Z,102156.03
2022-12-04T22:53:58.768Z,102162.50
2022-12-04T22:56:29.054Z,102165.41
2022-12-04T22:58:57.941Z,102164.16
2022-12-04T23:01:26.067Z,102154.28
2022-12-04T23:03:53.691Z,102160.84
2022-12-04T23:06:23.332Z,102156.06
2022-12-04T23:08:54.728Z,102163.00
2022-12-04T23:11:21.854Z,102159.72
2022-12-04T23:13:56.816Z,102162.66
2022-12-04T23:16:24.386Z,102159.06
2022-12-04T23:18:51.786Z,102158.94
2022-12-04T23:21:20.358Z,102152.69
2022-12-04T23:23:48.131Z,102152.75
2022-12-04T23:26:17.560Z,102153.47
2022-12-04T23:28:44.596Z,102152.38
2022-12-04T23:31:12.897Z,102148.50
2022-12-04T23:33:46.247Z,102148.44
2022-12-04T23:36:13.995Z,102151.50
2022-12-04T23:38:42.121Z,102166.13
2022-12-04T23:41:08.844Z,102165.09
2022-12-04T23:43:36.281Z,102165.75
2022-12-04T23:46:09.098Z,102162.41
2022-12-04T23:48:38.689Z,102169.59
2022-12-04T23:51:05.884Z,102166.16
2022-12-04T23:53:32.783Z,102160.06
2022-12-04T23:56:00.731Z,102162.06
2022-12-04T23:58:27.541Z,102162.16
